Terminal Aerodrome Forecast
Issued by NWS

Home | Current Version | Previous Version | Text Only | Print | Product List | Glossary On
Versions: 1 2 3 4 5 6 7 8 9 10 11 12 13 14 15 16 17
146
FTAK31 PAJN 281850 AAA
TAFAGY
TAF AMD
PAGY 281850Z 2819/2918 21010KT P6SM OVC050
     FM290000 22016KT P6SM OVC050
     FM290600 21007KT P6SM BKN040 OVC100
      AMD LTD TO CLD VIS AND WIND=

USA.gov is the U.S. government's official web portal to all federal, state and local government web resources and services.